Weather at Bellingham International Airport

Public forecast

Using degrees Fahrenheit for public forecast. Weather courtesy of forecast.io.

Current aviation weather report (METAR) for Bellingham International Airport

Retrieved 2022/05/21 23:53 UTC (36 minutes ago):

KBLI 212353Z 28010KT 10SM CLR 19/07 A3018 RMK AO2 SLP227 T01890072 10189 20144 58009

Aviation forecast (TAF) for Bellingham International Airport

Retrieved 2022-05-22 00:22 UTC (7 minutes ago):

TAF KBLI 212320Z 2200/2224 VRB06KT P6SM FEW030 TEMPO 2200/2202 -SHRA BKN030 FM220500 17004KT P6SM SKC FM221800 17006KT P6SM BKN250